createdAt,value
2018-04-26T00:01:33.139Z,1.20
2018-04-26T00:04:00.680Z,1.10
2018-04-26T00:06:28.243Z,1.00
2018-04-26T00:08:55.803Z,1.10
2018-04-26T00:11:23.467Z,1.17
2018-04-26T00:13:51.134Z,0.90
2018-04-26T00:16:18.695Z,1.10
2018-04-26T00:18:46.243Z,0.70
2018-04-26T00:21:13.811Z,1.10
2018-04-26T00:23:41.360Z,0.97
2018-04-26T00:26:08.936Z,0.83
2018-04-26T00:28:36.492Z,1.03
2018-04-26T00:31:04.066Z,0.90
2018-04-26T00:33:31.595Z,1.53
2018-04-26T00:35:59.144Z,1.13
2018-04-26T00:38:27.444Z,1.10
2018-04-26T00:40:55.005Z,1.20
2018-04-26T00:43:22.540Z,1.13
2018-04-26T00:45:51.151Z,1.13
2018-04-26T00:48:18.691Z,1.00
2018-04-26T00:50:47.039Z,1.40
2018-04-26T00:53:14.588Z,1.40
2018-04-26T00:55:42.142Z,1.30
2018-04-26T00:58:09.709Z,1.40
2018-04-26T01:00:37.280Z,1.43
2018-04-26T01:03:04.824Z,1.53
2018-04-26T01:05:32.394Z,1.10
2018-04-26T01:07:59.931Z,1.20
2018-04-26T01:10:27.516Z,1.30
2018-04-26T01:12:55.072Z,1.50
2018-04-26T01:15:22.604Z,1.10
2018-04-26T01:17:50.173Z,1.30
2018-04-26T01:20:17.729Z,1.20
2018-04-26T01:22:45.280Z,1.53
2018-04-26T01:25:12.828Z,1.37
2018-04-26T01:27:40.453Z,1.23
2018-04-26T01:30:07.990Z,1.17
2018-04-26T01:32:35.580Z,1.20
2018-04-26T01:35:03.115Z,1.83
2018-04-26T01:37:42.449Z,1.17
2018-04-26T01:40:09.995Z,1.70
2018-04-26T01:42:37.556Z,1.70
2018-04-26T01:45:05.101Z,1.67
2018-04-26T01:47:32.657Z,1.67
2018-04-26T01:50:00.207Z,1.03
2018-04-26T01:52:27.768Z,1.33
2018-04-26T01:54:55.338Z,1.53
2018-04-26T01:57:22.915Z,1.60
2018-04-26T01:59:50.447Z,1.80
2018-04-26T02:02:18.033Z,1.17
2018-04-26T02:04:45.581Z,1.30
2018-04-26T02:07:13.153Z,1.70
2018-04-26T02:09:40.705Z,1.20
2018-04-26T02:12:08.267Z,1.17
2018-04-26T02:14:35.810Z,1.53
2018-04-26T02:17:03.382Z,1.63
2018-04-26T02:19:30.967Z,1.60
2018-04-26T02:21:58.545Z,1.97
2018-04-26T02:24:26.089Z,1.73
2018-04-26T02:26:53.717Z,1.57
2018-04-26T02:29:21.278Z,2.20
2018-04-26T02:31:48.853Z,1.93
2018-04-26T02:34:16.434Z,1.40
2018-04-26T02:36:43.972Z,1.87
2018-04-26T02:39:11.545Z,1.97
2018-04-26T02:41:39.083Z,1.70
2018-04-26T02:44:06.646Z,2.60
2018-04-26T02:46:34.179Z,1.70
2018-04-26T02:49:02.510Z,1.83
2018-04-26T02:51:30.045Z,1.90
2018-04-26T02:53:57.605Z,1.93
2018-04-26T02:56:25.149Z,1.73
2018-04-26T02:58:52.714Z,1.90
2018-04-26T03:01:20.264Z,2.10
2018-04-26T03:03:48.603Z,2.37
2018-04-26T03:06:16.145Z,2.33
2018-04-26T03:08:43.706Z,1.73
2018-04-26T03:11:11.254Z,2.07
2018-04-26T03:13:38.811Z,2.10
2018-04-26T03:16:06.362Z,2.27
2018-04-26T03:18:33.943Z,2.13
2018-04-26T03:21:01.493Z,1.73
2018-04-26T03:23:29.154Z,2.20
2018-04-26T03:25:56.701Z,2.40
2018-04-26T03:28:24.286Z,2.10
2018-04-26T03:30:51.840Z,1.90
2018-04-26T03:33:19.401Z,2.70
2018-04-26T03:35:46.971Z,2.20
2018-04-26T03:38:14.528Z,2.27
2018-04-26T03:40:42.059Z,2.13
2018-04-26T03:43:10.387Z,1.70
2018-04-26T03:45:39.939Z,2.00
2018-04-26T03:48:07.521Z,2.10
2018-04-26T03:50:35.084Z,1.73
2018-04-26T03:53:02.628Z,2.20
2018-04-26T03:55:30.187Z,1.83
2018-04-26T03:57:57.752Z,2.97
2018-04-26T04:00:37.208Z,2.00
2018-04-26T04:03:16.638Z,1.60
2018-04-26T04:08:51.111Z,2.17
2018-04-26T04:11:18.637Z,2.23
2018-04-26T04:13:46.193Z,2.07
2018-04-26T04:16:14.541Z,2.57
2018-04-26T04:18:42.862Z,2.30
2018-04-26T04:21:10.429Z,2.40
2018-04-26T04:23:37.984Z,2.57
2018-04-26T04:26:05.542Z,2.53
2018-04-26T04:28:33.093Z,2.73
2018-04-26T04:31:00.652Z,2.30
2018-04-26T04:33:28.199Z,2.17
2018-04-26T04:35:55.759Z,2.60
2018-04-26T04:38:23.293Z,2.90
2018-04-26T04:40:50.855Z,2.33
2018-04-26T04:43:19.169Z,1.93
2018-04-26T04:45:46.785Z,2.07
2018-04-26T04:48:15.090Z,1.97
2018-04-26T04:50:43.437Z,2.30
2018-04-26T04:53:10.982Z,2.27
2018-04-26T04:55:38.538Z,1.53
2018-04-26T04:58:06.857Z,2.37
2018-04-26T05:00:35.195Z,2.17
2018-04-26T05:03:02.736Z,2.30
2018-04-26T05:05:30.312Z,1.90
2018-04-26T05:07:57.875Z,1.93
2018-04-26T05:10:25.442Z,2.30
2018-04-26T05:12:53.027Z,2.33
2018-04-26T05:15:20.594Z,2.03
2018-04-26T05:17:48.910Z,2.33
2018-04-26T05:20:16.489Z,2.33
2018-04-26T05:22:44.027Z,2.33
2018-04-26T05:25:11.563Z,2.17
2018-04-26T05:27:39.203Z,2.50
2018-04-26T05:30:07.554Z,2.43
2018-04-26T05:32:35.165Z,2.33
2018-04-26T05:35:02.739Z,2.27
2018-04-26T05:37:30.305Z,2.93
2018-04-26T05:39:57.847Z,3.17
2018-04-26T05:42:26.167Z,2.30
2018-04-26T05:44:53.699Z,2.23
2018-04-26T05:47:22.143Z,2.47
2018-04-26T05:49:49.703Z,2.87
2018-04-26T05:52:17.275Z,2.17
2018-04-26T05:54:44.844Z,2.83
2018-04-26T05:57:13.167Z,3.13
2018-04-26T05:59:40.726Z,2.50
2018-04-26T06:02:09.130Z,1.90
2018-04-26T06:04:37.677Z,2.40
2018-04-26T06:07:05.319Z,2.37
2018-04-26T06:09:33.613Z,2.60
2018-04-26T06:12:01.177Z,3.40
2018-04-26T06:14:28.725Z,2.57
2018-04-26T06:16:56.429Z,2.43
2018-04-26T06:19:24.746Z,2.97
2018-04-26T06:21:54.062Z,2.90
2018-04-26T06:24:21.650Z,2.57
2018-04-26T06:26:49.199Z,2.60
2018-04-26T06:29:16.759Z,2.90
2018-04-26T06:31:44.315Z,2.87
2018-04-26T06:34:11.887Z,2.40
2018-04-26T06:36:39.506Z,2.70
2018-04-26T06:39:07.843Z,3.10
2018-04-26T06:41:35.397Z,3.13
2018-04-26T06:44:02.952Z,2.33
2018-04-26T06:46:30.506Z,2.97
2018-04-26T06:48:58.066Z,3.03
2018-04-26T06:51:25.603Z,2.73
2018-04-26T06:53:53.937Z,2.80
2018-04-26T06:56:21.502Z,2.80
2018-04-26T06:58:49.057Z,3.37
2018-04-26T07:01:16.614Z,2.73
2018-04-26T07:03:44.214Z,2.90
2018-04-26T07:06:11.774Z,3.10
2018-04-26T07:08:39.324Z,2.60
2018-04-26T07:11:06.878Z,2.33
2018-04-26T07:13:34.410Z,3.20
2018-04-26T07:16:01.986Z,2.93
2018-04-26T07:18:29.536Z,3.47
2018-04-26T07:20:57.097Z,2.70
2018-04-26T07:23:24.643Z,2.67
2018-04-26T07:25:52.222Z,3.33
2018-04-26T07:28:19.767Z,2.60
2018-04-26T07:30:47.339Z,2.90
2018-04-26T07:33:14.891Z,2.33
2018-04-26T07:35:42.454Z,2.80
2018-04-26T07:38:10.011Z,2.93
2018-04-26T07:40:37.561Z,2.70
2018-04-26T07:43:05.102Z,3.00
2018-04-26T07:45:32.691Z,2.43
2018-04-26T07:48:00.230Z,2.70
2018-04-26T07:50:27.835Z,2.60
2018-04-26T07:52:55.404Z,2.97
2018-04-26T07:55:22.948Z,3.37
2018-04-26T07:57:50.566Z,2.63
2018-04-26T08:00:18.153Z,3.03
2018-04-26T08:02:45.710Z,2.43
2018-04-26T08:05:13.270Z,3.30
2018-04-26T08:07:40.834Z,2.93
2018-04-26T08:10:08.385Z,3.43
2018-04-26T08:12:35.944Z,3.60
2018-04-26T08:15:03.516Z,2.90
2018-04-26T08:17:31.076Z,3.27
2018-04-26T08:19:58.625Z,3.30
2018-04-26T08:22:26.218Z,3.43
2018-04-26T08:24:53.787Z,2.87
2018-04-26T08:27:22.139Z,3.65
2018-04-26T08:29:49.718Z,2.85
2018-04-26T08:32:17.265Z,3.15
2018-04-26T08:34:44.824Z,2.90
2018-04-26T08:37:12.375Z,3.30
2018-04-26T08:39:39.941Z,2.83
2018-04-26T08:42:07.475Z,3.10
2018-04-26T08:44:35.044Z,3.50
2018-04-26T08:47:02.579Z,3.07
2018-04-26T08:49:30.893Z,3.13
2018-04-26T08:51:58.461Z,3.67
2018-04-26T08:54:26.018Z,3.57
2018-04-26T08:56:53.573Z,3.60
2018-04-26T08:59:21.142Z,2.60
2018-04-26T09:01:48.697Z,2.13
2018-04-26T09:04:16.279Z,2.10
2018-04-26T09:06:43.939Z,2.47
2018-04-26T09:09:11.406Z,3.33
2018-04-26T09:11:38.949Z,2.73
2018-04-26T09:14:06.485Z,2.23
2018-04-26T09:16:34.075Z,1.83
2018-04-26T09:19:01.637Z,2.50
2018-04-26T09:21:29.235Z,3.00
2018-04-26T09:23:56.796Z,2.70
2018-04-26T09:26:25.122Z,2.53
2018-04-26T09:28:52.661Z,2.87
2018-04-26T09:31:20.216Z,2.30
2018-04-26T09:33:47.759Z,1.70
2018-04-26T09:36:16.084Z,1.60
2018-04-26T09:38:43.663Z,1.33
2018-04-26T09:41:11.296Z,1.13
2018-04-26T09:43:38.830Z,0.70
2018-04-26T09:46:06.383Z,0.57
2018-04-26T09:48:34.774Z,1.07
2018-04-26T09:51:02.269Z,0.83
2018-04-26T09:53:29.824Z,1.00
2018-04-26T09:55:57.386Z,0.80
2018-04-26T09:58:24.946Z,0.90
2018-04-26T10:00:53.430Z,0.70
2018-04-26T10:03:20.972Z,0.90
2018-04-26T10:05:54.158Z,0.50
2018-04-26T10:08:21.736Z,0.80
2018-04-26T10:10:49.299Z,0.60
2018-04-26T10:13:16.879Z,0.63
2018-04-26T10:15:44.435Z,0.80
2018-04-26T10:18:12.036Z,0.53
2018-04-26T10:20:40.345Z,0.90
2018-04-26T10:23:07.933Z,0.80
2018-04-26T10:25:35.500Z,1.07
2018-04-26T10:28:03.073Z,0.90
2018-04-26T10:30:30.642Z,0.63
2018-04-26T10:32:58.979Z,0.87
2018-04-26T10:35:26.560Z,0.80
2018-04-26T10:37:54.117Z,0.70
2018-04-26T10:40:21.657Z,1.00
2018-04-26T10:42:49.242Z,0.90
2018-04-26T10:45:16.785Z,1.03
2018-04-26T10:47:45.136Z,0.80
2018-04-26T10:50:12.679Z,0.83
2018-04-26T10:52:40.989Z,0.63
2018-04-26T10:55:08.546Z,0.60
2018-04-26T10:57:36.093Z,0.77
2018-04-26T11:00:03.735Z,0.90
2018-04-26T11:02:32.001Z,0.73
2018-04-26T11:05:00.333Z,0.80
2018-04-26T11:07:27.889Z,0.90
2018-04-26T11:09:55.487Z,0.70
2018-04-26T11:12:23.071Z,1.20
2018-04-26T11:14:51.484Z,0.83
2018-04-26T11:17:19.502Z,1.07
2018-04-26T11:19:47.056Z,0.90
2018-04-26T11:22:14.618Z,1.20
2018-04-26T11:24:42.177Z,0.80
2018-04-26T11:27:09.733Z,1.07
2018-04-26T11:29:37.303Z,0.50
2018-04-26T11:32:04.856Z,0.87
2018-04-26T11:34:32.439Z,0.57
2018-04-26T11:37:00.757Z,0.70
2018-04-26T11:39:28.295Z,0.70
2018-04-26T11:41:55.845Z,0.63
2018-04-26T11:44:23.395Z,0.60
2018-04-26T11:46:51.763Z,0.80
2018-04-26T11:49:19.308Z,0.63
2018-04-26T11:51:46.869Z,0.53
2018-04-26T11:54:14.420Z,0.40
2018-04-26T11:56:41.990Z,0.67
2018-04-26T11:59:09.559Z,0.80
2018-04-26T12:01:37.137Z,1.07
2018-04-26T12:04:05.456Z,0.60
2018-04-26T12:06:33.076Z,0.70
2018-04-26T12:09:00.581Z,0.67
2018-04-26T12:11:28.141Z,0.70
2018-04-26T12:13:55.701Z,0.43
2018-04-26T12:16:23.295Z,0.60
2018-04-26T12:18:50.895Z,0.60
2018-04-26T12:21:18.472Z,0.60
2018-04-26T12:23:46.030Z,0.70
2018-04-26T12:26:13.625Z,0.63
2018-04-26T12:28:41.170Z,0.57
2018-04-26T12:31:08.720Z,0.50
2018-04-26T12:33:36.307Z,0.80
2018-04-26T12:36:03.853Z,0.70
2018-04-26T12:38:31.414Z,0.87
2018-04-26T12:40:58.951Z,0.50
2018-04-26T12:43:26.547Z,0.80
2018-04-26T12:45:54.131Z,0.70
2018-04-26T12:48:21.690Z,0.67
2018-04-26T12:50:49.233Z,0.70
2018-04-26T12:53:16.810Z,0.70
2018-04-26T12:55:44.365Z,1.17
2018-04-26T12:58:11.996Z,0.80
2018-04-26T13:00:39.517Z,1.00
2018-04-26T13:03:07.078Z,0.57
2018-04-26T13:05:34.629Z,0.80
2018-04-26T13:08:03.045Z,0.70
2018-04-26T13:10:30.529Z,1.23
2018-04-26T13:12:58.084Z,0.67
2018-04-26T13:15:25.684Z,0.67
2018-04-26T13:17:54.011Z,0.80
2018-04-26T13:20:21.580Z,0.70
2018-04-26T13:22:49.131Z,1.07
2018-04-26T13:25:16.715Z,0.60
2018-04-26T13:27:44.258Z,0.70
2018-04-26T13:30:11.843Z,0.70
2018-04-26T13:32:39.378Z,0.70
2018-04-26T13:35:06.940Z,0.77
2018-04-26T13:37:34.504Z,0.50
2018-04-26T13:40:02.063Z,0.60
2018-04-26T13:42:29.616Z,0.40
2018-04-26T13:44:57.197Z,0.53
2018-04-26T13:47:24.733Z,0.50
2018-04-26T13:49:52.270Z,0.80
2018-04-26T13:52:19.836Z,0.80
2018-04-26T13:54:47.377Z,0.63
2018-04-26T13:57:15.712Z,0.70
2018-04-26T13:59:43.272Z,0.90
2018-04-26T14:02:10.876Z,1.10
2018-04-26T14:04:39.193Z,1.23
2018-04-26T14:07:06.745Z,1.07
2018-04-26T14:09:34.298Z,0.90
2018-04-26T14:12:01.954Z,1.10
2018-04-26T14:14:29.466Z,1.30
2018-04-26T14:16:57.067Z,0.90
2018-04-26T14:19:24.613Z,1.00
2018-04-26T14:21:52.930Z,1.20
2018-04-26T14:24:20.510Z,1.07
2018-04-26T14:26:48.050Z,1.03
2018-04-26T14:29:15.716Z,1.00
2018-04-26T14:31:43.178Z,1.00
2018-04-26T14:34:10.774Z,0.60
2018-04-26T14:36:38.340Z,0.57
2018-04-26T14:39:05.895Z,0.70
2018-04-26T14:41:33.458Z,0.50
2018-04-26T14:44:01.041Z,0.77
2018-04-26T14:46:28.589Z,0.90
2018-04-26T14:48:56.925Z,0.83
2018-04-26T14:51:24.462Z,0.90
2018-04-26T14:53:52.045Z,0.57
2018-04-26T14:56:19.591Z,0.60
2018-04-26T14:58:47.196Z,0.63
2018-04-26T15:01:14.743Z,0.70
2018-04-26T15:03:42.289Z,0.67
2018-04-26T15:06:09.867Z,0.60
2018-04-26T15:08:37.449Z,0.50
2018-04-26T15:11:05.809Z,0.60
2018-04-26T15:13:33.364Z,0.50
2018-04-26T15:16:00.933Z,0.70
2018-04-26T15:18:28.466Z,0.80
2018-04-26T15:20:56.043Z,0.90
2018-04-26T15:23:24.388Z,0.60
2018-04-26T15:25:52.340Z,0.60
2018-04-26T15:28:19.891Z,0.60
2018-04-26T15:30:48.320Z,0.53
2018-04-26T15:33:15.868Z,0.50
2018-04-26T15:35:43.467Z,0.47
2018-04-26T15:38:11.012Z,0.60
2018-04-26T15:40:38.559Z,0.60
2018-04-26T15:43:06.114Z,0.60
2018-04-26T15:45:33.673Z,0.70
2018-04-26T15:48:01.236Z,0.70
2018-04-26T15:50:34.590Z,0.70
2018-04-26T15:53:14.877Z,0.80
2018-04-26T15:55:54.240Z,0.80
2018-04-26T16:02:01.072Z,0.80
2018-04-26T16:04:40.454Z,1.00
2018-04-26T16:07:48.149Z,0.80
2018-04-26T16:10:27.538Z,1.40
2018-04-26T16:13:12.651Z,0.90
2018-04-26T16:15:57.909Z,0.97
2018-04-26T16:21:39.915Z,1.30
2018-04-26T16:24:19.084Z,1.07
2018-04-26T16:27:04.574Z,1.07
2018-04-26T16:29:44.146Z,0.80
2018-04-26T16:32:29.357Z,0.87
2018-04-26T16:35:15.376Z,0.50
2018-04-26T16:38:00.493Z,0.60
2018-04-26T16:40:28.062Z,0.80
2018-04-26T16:42:55.617Z,0.80
2018-04-26T16:45:23.175Z,0.80
2018-04-26T16:47:50.810Z,0.70
2018-04-26T16:50:18.358Z,0.53
2018-04-26T16:52:45.942Z,0.93
2018-04-26T16:55:13.530Z,0.60
2018-04-26T16:57:41.098Z,0.90
2018-04-26T17:00:08.628Z,0.80
2018-04-26T17:02:36.193Z,0.60
2018-04-26T17:05:03.740Z,0.70
2018-04-26T17:07:31.302Z,0.70
2018-04-26T17:09:58.856Z,0.93
2018-04-26T17:12:27.422Z,0.90
2018-04-26T17:14:54.960Z,1.00
2018-04-26T17:17:23.320Z,0.80
2018-04-26T17:19:50.858Z,1.13
2018-04-26T17:22:18.428Z,0.73
2018-04-26T17:24:46.025Z,0.70
2018-04-26T17:27:13.580Z,1.00
2018-04-26T17:29:41.956Z,1.20
2018-04-26T17:32:10.379Z,0.83
2018-04-26T17:34:37.950Z,0.80
2018-04-26T17:37:05.493Z,0.90
2018-04-26T17:39:33.101Z,0.70
2018-04-26T17:42:00.646Z,1.10
2018-04-26T17:44:28.219Z,0.70
2018-04-26T17:46:55.761Z,0.83
2018-04-26T17:49:23.339Z,0.80
2018-04-26T17:51:50.890Z,1.03
2018-04-26T17:54:18.478Z,0.87
2018-04-26T17:56:46.808Z,1.00
2018-04-26T17:59:14.362Z,0.90
2018-04-26T18:01:41.926Z,0.60
2018-04-26T18:04:09.479Z,1.10
2018-04-26T18:06:37.052Z,0.53
2018-04-26T18:09:04.604Z,0.90
2018-04-26T18:11:32.159Z,1.00
2018-04-26T18:13:59.712Z,0.70
2018-04-26T18:16:27.282Z,0.87
2018-04-26T18:18:54.809Z,0.97
2018-04-26T18:21:23.136Z,1.50
2018-04-26T18:23:50.702Z,0.90
2018-04-26T18:26:18.310Z,0.90
2018-04-26T18:28:46.628Z,1.23
2018-04-26T18:31:14.203Z,1.00
2018-04-26T18:33:41.809Z,0.80
2018-04-26T18:36:09.344Z,0.60
2018-04-26T18:38:36.894Z,0.80
2018-04-26T18:41:05.409Z,1.10
2018-04-26T18:43:33.789Z,0.70
2018-04-26T18:46:01.333Z,1.00
2018-04-26T18:48:28.920Z,1.30
2018-04-26T18:50:57.245Z,0.90
2018-04-26T18:53:24.811Z,1.03
2018-04-26T18:55:52.925Z,0.60
2018-04-26T18:58:21.331Z,0.87
2018-04-26T19:00:48.916Z,0.73
2018-04-26T19:03:16.505Z,0.73
2018-04-26T19:05:44.060Z,1.10
2018-04-26T19:08:11.658Z,0.87
2018-04-26T19:10:39.986Z,1.00
2018-04-26T19:13:07.534Z,0.60
2018-04-26T19:15:35.093Z,0.90
2018-04-26T19:18:02.639Z,0.60
2018-04-26T19:20:30.212Z,0.80
2018-04-26T19:22:57.740Z,1.10
2018-04-26T19:25:26.067Z,0.70
2018-04-26T19:27:53.690Z,0.63
2018-04-26T19:30:21.212Z,0.60
2018-04-26T19:32:48.758Z,0.73
2018-04-26T19:35:16.318Z,0.93
2018-04-26T19:37:43.884Z,0.40
2018-04-26T19:40:11.447Z,0.57
2018-04-26T19:42:38.999Z,0.60
2018-04-26T19:45:06.554Z,0.47
2018-04-26T19:47:34.136Z,0.57
2018-04-26T19:50:01.730Z,0.90
2018-04-26T19:52:29.320Z,1.20
2018-04-26T19:54:56.876Z,0.77
2018-04-26T19:57:24.456Z,0.67
2018-04-26T19:59:52.004Z,0.57
2018-04-26T20:02:19.564Z,0.67
2018-04-26T20:04:47.096Z,0.80
2018-04-26T20:07:14.687Z,0.53
2018-04-26T20:09:42.224Z,0.80
2018-04-26T20:12:09.791Z,0.57
2018-04-26T20:14:37.357Z,0.63
2018-04-26T20:17:04.922Z,1.10
2018-04-26T20:19:32.462Z,0.70
2018-04-26T20:22:00.038Z,0.63
2018-04-26T20:24:27.582Z,0.60
2018-04-26T20:26:55.150Z,0.80
2018-04-26T20:29:22.730Z,0.70
2018-04-26T20:31:50.315Z,0.60
2018-04-26T20:34:17.954Z,0.87
2018-04-26T20:36:45.503Z,0.60
2018-04-26T20:39:13.076Z,1.30
2018-04-26T20:41:53.435Z,0.67
2018-04-26T20:44:32.892Z,0.70
2018-04-26T20:47:00.427Z,0.70
2018-04-26T20:49:27.979Z,1.00
2018-04-26T20:51:55.529Z,1.07
2018-04-26T20:54:23.084Z,0.97
2018-04-26T20:56:50.610Z,1.03
2018-04-26T20:59:18.165Z,0.90
2018-04-26T21:01:45.698Z,0.60
2018-04-26T21:04:13.265Z,1.03
2018-04-26T21:06:40.806Z,0.67
2018-04-26T21:09:08.382Z,1.03
2018-04-26T21:11:35.928Z,0.73
2018-04-26T21:14:03.555Z,1.07
2018-04-26T21:16:32.051Z,0.93
2018-04-26T21:18:59.613Z,1.10
2018-04-26T21:21:27.157Z,0.63
2018-04-26T21:23:55.783Z,0.60
2018-04-26T21:26:23.372Z,0.90
2018-04-26T21:28:50.944Z,0.60
2018-04-26T21:31:18.508Z,0.50
2018-04-26T21:33:46.546Z,0.83
2018-04-26T21:36:14.154Z,0.77
2018-04-26T21:38:41.721Z,0.57
2018-04-26T21:41:10.393Z,0.70
2018-04-26T21:43:38.714Z,0.63
2018-04-26T21:46:06.304Z,0.90
2018-04-26T21:48:33.846Z,1.20
2018-04-26T21:51:07.068Z,0.83
2018-04-26T21:53:40.303Z,0.70
2018-04-26T21:56:13.461Z,0.77
2018-04-26T21:58:46.733Z,0.60
2018-04-26T22:01:19.885Z,0.73
2018-04-26T22:03:51.062Z,0.70
2018-04-26T22:06:18.636Z,0.67
2018-04-26T22:08:46.225Z,0.60
2018-04-26T22:11:13.792Z,0.67
2018-04-26T22:13:42.294Z,1.17
2018-04-26T22:16:10.629Z,1.10
2018-04-26T22:18:38.249Z,1.13
2018-04-26T22:21:05.830Z,0.77
2018-04-26T22:23:33.388Z,1.23
2018-04-26T22:26:00.919Z,0.80
2018-04-26T22:28:29.232Z,0.97
2018-04-26T22:30:56.772Z,1.10
2018-04-26T22:33:24.337Z,1.03
2018-04-26T22:35:51.881Z,0.90
2018-04-26T22:38:19.440Z,0.73
2018-04-26T22:40:46.981Z,0.87
2018-04-26T22:43:15.366Z,0.93
2018-04-26T22:45:42.922Z,0.90
2018-04-26T22:48:11.259Z,0.70
2018-04-26T22:50:38.796Z,0.90
2018-04-26T22:53:06.322Z,0.90
2018-04-26T22:55:34.663Z,0.70
2018-04-26T22:58:02.204Z,1.00
2018-04-26T23:00:29.755Z,0.97
2018-04-26T23:02:57.296Z,0.93
2018-04-26T23:05:24.864Z,1.27
2018-04-26T23:07:52.404Z,0.97
2018-04-26T23:10:20.741Z,1.53
2018-04-26T23:12:48.303Z,0.83
2018-04-26T23:15:15.882Z,0.87
2018-04-26T23:17:43.433Z,0.90
2018-04-26T23:20:10.997Z,0.73
2018-04-26T23:22:38.540Z,0.97
2018-04-26T23:25:06.100Z,1.20
2018-04-26T23:27:33.655Z,0.80
2018-04-26T23:30:01.224Z,1.57
2018-04-26T23:32:28.865Z,0.87
2018-04-26T23:34:56.398Z,1.10
2018-04-26T23:37:24.760Z,0.90
2018-04-26T23:39:53.065Z,1.10
2018-04-26T23:42:20.625Z,1.20
2018-04-26T23:44:48.166Z,1.60
2018-04-26T23:47:16.495Z,1.13
2018-04-26T23:49:44.045Z,1.03
2018-04-26T23:52:11.619Z,0.97
2018-04-26T23:54:39.146Z,0.90
2018-04-26T23:57:06.714Z,1.10
2018-04-26T23:59:34.257Z,1.13
